Time;durP1;ratioP1;P1;durP2;ratioP2;P2;SDS_P1;SDS_P2;PMS_P1;PMS_P2;Temp;Humidity;BMP_temperature;BMP_pressure;BME280_temperature;BME280_humidity;BME280_pressure;Samples;Min_cycle;Max_cycle;Signal;HPM_P1;HPM_P2
2021/04/25 00:01:52;;;;;;;2.30;0.80;;;10.90;57.30;;;;;;5052506;28;20033;-82
2021/04/25 00:04:18;;;;;;;0.60;0.50;;;10.80;57.10;;;;;;5051014;28;20053;-82
2021/04/25 00:06:45;;;;;;;0.70;0.57;;;10.80;57.00;;;;;;5051086;28;20404;-84
2021/04/25 00:09:12;;;;;;;0.90;0.63;;;10.70;56.90;;;;;;5051543;28;20500;-81
2021/04/25 00:11:39;;;;;;;0.82;0.57;;;10.60;56.80;;;;;;5051011;28;20080;-81
2021/04/25 00:14:05;;;;;;;1.08;0.50;;;10.60;56.70;;;;;;5052466;28;20036;-83
2021/04/25 00:16:31;;;;;;;0.50;0.50;;;10.60;56.80;;;;;;5051053;28;20428;-82
2021/04/25 00:18:59;;;;;;;0.50;0.50;;;10.60;56.60;;;;;;5052270;28;20396;-81
2021/04/25 00:21:28;;;;;;;1.02;0.60;;;10.60;56.40;;;;;;5052489;28;20044;-83
2021/04/25 00:24:00;;;;;;;0.93;0.50;;;10.50;56.30;;;;;;5051767;28;20124;-83
2021/04/25 00:26:27;;;;;;;1.55;0.55;;;10.50;56.10;;;;;;5052764;28;20110;-83
2021/04/25 00:28:53;;;;;;;0.60;0.60;;;10.40;56.00;;;;;;5052385;28;20393;-82
2021/04/25 00:31:19;;;;;;;0.75;0.45;;;10.40;55.90;;;;;;5052422;28;20052;-82
2021/04/25 00:33:47;;;;;;;0.47;0.45;;;10.40;55.90;;;;;;5052312;28;20111;-82
2021/04/25 00:36:13;;;;;;;0.75;0.43;;;10.30;55.80;;;;;;5052280;28;20041;-83
2021/04/25 00:38:39;;;;;;;1.85;0.50;;;10.30;55.90;;;;;;5051585;28;20052;-83
2021/04/25 00:41:06;;;;;;;0.80;0.60;;;10.30;55.80;;;;;;5052704;28;20040;-83
2021/04/25 00:43:36;;;;;;;0.40;0.40;;;10.30;55.90;;;;;;5052051;28;20025;-82
2021/04/25 00:46:02;;;;;;;0.57;0.57;;;10.30;55.90;;;;;;5051009;28;20036;-83
2021/04/25 00:48:28;;;;;;;1.23;0.50;;;10.30;55.80;;;;;;5051953;28;20083;-83
2021/04/25 00:50:55;;;;;;;1.15;0.75;;;10.20;55.80;;;;;;5052799;28;20033;-82
2021/04/25 00:53:22;;;;;;;0.60;0.60;;;10.20;55.90;;;;;;5053664;28;20082;-82
2021/04/25 00:55:50;;;;;;;0.85;0.55;;;10.20;55.80;;;;;;5052498;28;20036;-82
2021/04/25 00:58:17;;;;;;;0.80;0.80;;;10.20;55.70;;;;;;5055510;28;20044;-82
2021/04/25 01:00:43;;;;;;;0.50;0.50;;;10.10;55.50;;;;;;5055468;28;20538;-82
2021/04/25 01:03:09;;;;;;;0.88;0.70;;;10.10;55.60;;;;;;5055397;28;20151;-81
2021/04/25 01:05:35;;;;;;;0.50;0.50;;;10.10;55.70;;;;;;5056183;28;20075;-82
2021/04/25 01:08:01;;;;;;;0.82;0.70;;;10.10;55.70;;;;;;5054260;28;20531;-80
2021/04/25 01:10:29;;;;;;;0.35;0.35;;;10.10;55.60;;;;;;5055426;28;20055;-83
2021/04/25 01:12:55;;;;;;;0.52;0.50;;;10.00;55.80;;;;;;5056213;28;20043;-80
2021/04/25 01:15:22;;;;;;;0.75;0.63;;;10.00;55.70;;;;;;5054138;28;20041;-82
2021/04/25 01:17:49;;;;;;;0.73;0.60;;;10.00;55.80;;;;;;5055297;28;20060;-82
2021/04/25 01:20:18;;;;;;;0.43;0.43;;;10.00;55.70;;;;;;5055857;28;20440;-82
2021/04/25 01:22:45;;;;;;;1.35;0.70;;;9.90;55.70;;;;;;5055306;28;20119;-80
2021/04/25 01:25:14;;;;;;;0.52;0.50;;;9.90;55.70;;;;;;5054085;28;20082;-83
2021/04/25 01:27:40;;;;;;;0.52;0.50;;;9.90;55.80;;;;;;5037343;28;20120;-83
2021/04/25 01:30:09;;;;;;;0.60;0.60;;;9.90;55.80;;;;;;5055243;28;20123;-83
2021/04/25 01:32:40;;;;;;;1.08;0.50;;;9.90;55.80;;;;;;5055080;28;20044;-83
2021/04/25 01:35:07;;;;;;;0.60;0.60;;;9.90;56.00;;;;;;5054503;28;20029;-82
2021/04/25 01:37:33;;;;;;;1.75;0.63;;;9.90;55.90;;;;;;5055135;28;20064;-83
2021/04/25 01:40:01;;;;;;;0.55;0.52;;;9.80;55.80;;;;;;5053464;28;20067;-81
2021/04/25 01:42:28;;;;;;;0.80;0.60;;;9.80;55.90;;;;;;5053950;28;20041;-84
2021/04/25 01:44:53;;;;;;;0.60;0.50;;;9.80;56.00;;;;;;5054624;28;20118;-82
2021/04/25 01:47:19;;;;;;;1.38;0.60;;;9.80;56.00;;;;;;5054490;28;20039;-83
2021/04/25 01:49:45;;;;;;;1.15;0.50;;;9.80;56.00;;;;;;5054776;28;20420;-82
2021/04/25 01:52:12;;;;;;;1.42;0.40;;;9.80;56.00;;;;;;5053745;28;20413;-83
2021/04/25 01:54:39;;;;;;;0.95;0.52;;;9.70;56.10;;;;;;5053331;28;20032;-82
2021/04/25 01:57:06;;;;;;;0.50;0.50;;;9.70;56.10;;;;;;5054429;28;20041;-83
2021/04/25 01:59:32;;;;;;;0.68;0.68;;;9.70;56.30;;;;;;5053423;28;20496;-81
2021/04/25 02:01:58;;;;;;;0.55;0.55;;;9.70;56.40;;;;;;5054634;28;20033;-83
2021/04/25 02:04:25;;;;;;;0.95;0.63;;;9.60;56.30;;;;;;5055211;28;20088;-83
2021/04/25 02:06:51;;;;;;;0.50;0.50;;;9.60;56.40;;;;;;5054788;28;20040;-83
2021/04/25 02:09:19;;;;;;;0.85;0.60;;;9.60;56.50;;;;;;5054076;28;20053;-82
2021/04/25 02:11:44;;;;;;;0.60;0.60;;;9.60;56.40;;;;;;5054492;28;20496;-83
2021/04/25 02:14:10;;;;;;;0.47;0.47;;;9.50;56.50;;;;;;5054896;28;20025;-84
2021/04/25 02:16:38;;;;;;;1.48;0.93;;;9.50;56.50;;;;;;5054373;28;20124;-83
2021/04/25 02:19:04;;;;;;;0.50;0.50;;;9.50;56.50;;;;;;5053728;28;20068;-82
2021/04/25 02:21:30;;;;;;;1.92;0.80;;;9.50;56.60;;;;;;5054444;28;20037;-83
2021/04/25 02:23:57;;;;;;;0.80;0.70;;;9.50;56.60;;;;;;5054587;28;20119;-83
2021/04/25 02:26:24;;;;;;;0.73;0.60;;;9.50;56.70;;;;;;5055810;28;20051;-82
2021/04/25 02:28:50;;;;;;;1.83;0.90;;;9.50;56.70;;;;;;5036022;28;20039;-83
2021/04/25 02:31:16;;;;;;;0.55;0.52;;;9.40;56.70;;;;;;5054143;28;20037;-82
2021/04/25 02:33:42;;;;;;;0.57;0.50;;;9.40;56.80;;;;;;5053284;28;20041;-83
2021/04/25 02:36:09;;;;;;;1.08;0.90;;;9.40;56.90;;;;;;5052802;28;20060;-83
2021/04/25 02:38:35;;;;;;;0.85;0.60;;;9.50;56.90;;;;;;5052679;28;20051;-84
2021/04/25 02:41:03;;;;;;;1.38;0.60;;;9.50;56.90;;;;;;5053949;28;20033;-84
2021/04/25 02:43:29;;;;;;;2.58;0.60;;;9.50;56.80;;;;;;5052386;28;20048;-85
2021/04/25 02:45:57;;;;;;;0.77;0.60;;;9.50;56.80;;;;;;5054224;28;20110;-84
2021/04/25 02:48:25;;;;;;;1.02;0.60;;;9.60;56.80;;;;;;5053296;28;20044;-84
2021/04/25 02:50:53;;;;;;;0.50;0.50;;;9.60;56.70;;;;;;5052664;28;20127;-84
2021/04/25 02:53:19;;;;;;;0.50;0.50;;;9.60;56.70;;;;;;5053329;28;20033;-84
2021/04/25 02:55:45;;;;;;;1.13;1.02;;;9.60;56.70;;;;;;5053336;28;20036;-86
2021/04/25 02:58:11;;;;;;;0.50;0.50;;;9.60;56.70;;;;;;5051859;28;20546;-82
2021/04/25 03:00:38;;;;;;;0.80;0.80;;;9.70;56.70;;;;;;5053707;28;20037;-82
2021/04/25 03:03:05;;;;;;;0.70;0.52;;;9.60;56.60;;;;;;5051814;28;20049;-82
2021/04/25 03:05:32;;;;;;;0.70;0.60;;;9.70;56.70;;;;;;5053782;28;20465;-82
2021/04/25 03:07:58;;;;;;;0.60;0.60;;;9.70;56.60;;;;;;5051744;28;20047;-83
2021/04/25 03:10:25;;;;;;;0.70;0.55;;;9.70;56.60;;;;;;5053467;28;20032;-82
2021/04/25 03:12:52;;;;;;;0.77;0.77;;;9.70;56.60;;;;;;5052574;28;20049;-83
2021/04/25 03:15:19;;;;;;;1.95;0.60;;;9.70;56.50;;;;;;5054036;28;20457;-83
2021/04/25 03:17:46;;;;;;;0.70;0.50;;;9.70;56.70;;;;;;5035576;28;20032;-83
2021/04/25 03:20:14;;;;;;;1.63;0.80;;;9.70;56.60;;;;;;5052745;28;20063;-81
2021/04/25 03:22:40;;;;;;;0.50;0.50;;;9.80;56.60;;;;;;5053261;28;20041;-82
2021/04/25 03:25:08;;;;;;;0.75;0.60;;;9.80;56.60;;;;;;5052974;28;20029;-83
2021/04/25 03:27:34;;;;;;;1.10;0.60;;;9.80;56.60;;;;;;5052914;28;20041;-83
2021/04/25 03:30:01;;;;;;;4.38;0.70;;;9.70;56.70;;;;;;5052991;28;20405;-83
2021/04/25 03:32:27;;;;;;;0.93;0.73;;;9.70;56.70;;;;;;5052797;28;20536;-84
2021/04/25 03:34:53;;;;;;;0.95;0.73;;;9.70;56.60;;;;;;5052842;28;20126;-84
2021/04/25 03:37:19;;;;;;;0.65;0.60;;;9.70;57.20;;;;;;5052981;28;20072;-83
2021/04/25 03:39:45;;;;;;;0.70;0.70;;;9.70;56.70;;;;;;5051501;28;20497;-82
2021/04/25 03:42:11;;;;;;;1.60;0.60;;;9.70;56.70;;;;;;5052328;28;20040;-83
2021/04/25 03:44:37;;;;;;;0.70;0.70;;;9.70;56.80;;;;;;5053264;28;20068;-84
2021/04/25 03:47:03;;;;;;;1.15;0.45;;;9.60;56.80;;;;;;5052473;28;20045;-83
2021/04/25 03:49:29;;;;;;;0.50;0.50;;;9.60;56.80;;;;;;5052337;28;20090;-83
2021/04/25 03:51:55;;;;;;;0.60;0.60;;;9.70;56.90;;;;;;5052596;28;20043;-83
2021/04/25 03:54:22;;;;;;;0.95;0.40;;;9.60;56.80;;;;;;5052729;28;20043;-85
2021/04/25 03:56:48;;;;;;;0.77;0.60;;;9.60;56.90;;;;;;5051573;28;20075;-84
2021/04/25 03:59:14;;;;;;;0.60;0.45;;;9.60;56.90;;;;;;5053360;28;20040;-83
2021/04/25 04:01:41;;;;;;;0.77;0.70;;;9.60;57.50;;;;;;5054820;28;20044;-84
2021/04/25 04:04:07;;;;;;;0.65;0.50;;;9.60;56.90;;;;;;5052133;28;20064;-83
2021/04/25 04:06:33;;;;;;;0.60;0.57;;;9.60;57.00;;;;;;5051408;28;20127;-82
2021/04/25 04:08:59;;;;;;;0.40;0.40;;;9.60;57.00;;;;;;5052465;28;20049;-83
2021/04/25 04:11:25;;;;;;;0.70;0.55;;;9.60;57.00;;;;;;5051332;28;20045;-83
2021/04/25 04:13:51;;;;;;;0.95;0.50;;;9.60;57.10;;;;;;5051522;28;20071;-84
2021/04/25 04:16:18;;;;;;;0.50;0.50;;;9.70;57.10;;;;;;5053140;28;20082;-83
2021/04/25 04:18:44;;;;;;;0.50;0.50;;;9.70;57.00;;;;;;5052704;28;20035;-85
2021/04/25 04:21:12;;;;;;;0.60;0.50;;;9.70;56.90;;;;;;5051239;28;20058;-82
2021/04/25 04:23:38;;;;;;;0.38;0.30;;;9.70;56.80;;;;;;5052449;28;20080;-82
2021/04/25 04:26:04;;;;;;;0.50;0.50;;;9.70;56.90;;;;;;5051057;28;20033;-82
2021/04/25 04:28:30;;;;;;;0.38;0.38;;;9.70;56.90;;;;;;5050958;28;20143;-83
2021/04/25 04:30:56;;;;;;;0.75;0.50;;;9.70;56.90;;;;;;5052732;28;20064;-82
2021/04/25 04:33:22;;;;;;;0.50;0.50;;;9.80;56.80;;;;;;5056018;28;20497;-84
2021/04/25 04:35:48;;;;;;;1.23;0.47;;;9.80;56.70;;;;;;5056053;28;20124;-83
2021/04/25 04:38:14;;;;;;;1.75;0.55;;;9.80;56.60;;;;;;5054910;28;20537;-85
2021/04/25 04:40:40;;;;;;;0.40;0.40;;;9.80;56.60;;;;;;5055976;28;20041;-87
2021/04/25 04:43:07;;;;;;;0.90;0.40;;;9.80;56.60;;;;;;5038005;28;20049;-82
2021/04/25 04:45:33;;;;;;;1.30;0.47;;;9.90;56.50;;;;;;5055943;28;20037;-82
2021/04/25 04:48:00;;;;;;;1.05;0.57;;;9.90;56.50;;;;;;5054630;28;20516;-82
2021/04/25 04:50:26;;;;;;;1.00;0.80;;;9.90;56.40;;;;;;5054506;28;20041;-86
2021/04/25 04:52:52;;;;;;;0.88;0.70;;;9.90;56.30;;;;;;5055072;28;20041;-84
2021/04/25 04:55:19;;;;;;;1.35;0.63;;;10.00;56.30;;;;;;5055508;28;20036;-83
2021/04/25 04:57:45;;;;;;;1.40;0.70;;;9.90;56.30;;;;;;5054657;28;20049;-81
2021/04/25 05:00:13;;;;;;;0.88;0.32;;;10.00;56.30;;;;;;5054616;28;20077;-81
2021/04/25 05:02:39;;;;;;;1.15;0.70;;;10.00;56.30;;;;;;5055807;28;20053;-81
2021/04/25 05:05:09;;;;;;;0.40;0.40;;;10.00;56.10;;;;;;5055373;28;20149;-84
2021/04/25 05:07:35;;;;;;;0.63;0.40;;;10.00;56.00;;;;;;5053988;28;20080;-82
2021/04/25 05:10:02;;;;;;;0.38;0.38;;;10.00;56.00;;;;;;5055029;28;20421;-80
2021/04/25 05:12:28;;;;;;;1.23;0.40;;;10.10;56.00;;;;;;5055796;28;20560;-82
2021/04/25 05:14:54;;;;;;;0.60;0.50;;;10.10;55.80;;;;;;5054015;28;20055;-81
2021/04/25 05:17:20;;;;;;;0.35;0.35;;;10.10;55.90;;;;;;5055199;28;20501;-81
2021/04/25 05:19:46;;;;;;;0.30;0.30;;;10.10;55.80;;;;;;5055474;28;20040;-83
2021/04/25 05:22:13;;;;;;;1.38;0.82;;;10.10;55.70;;;;;;5054189;28;20489;-81
2021/04/25 05:24:39;;;;;;;0.40;0.40;;;10.10;55.50;;;;;;5055006;28;20592;-81
2021/04/25 05:27:07;;;;;;;0.30;0.30;;;10.10;55.70;;;;;;5055183;28;20036;-84
2021/04/25 05:29:33;;;;;;;1.27;0.50;;;10.20;55.70;;;;;;5055424;28;20045;-88
2021/04/25 05:32:01;;;;;;;0.40;0.40;;;10.10;55.60;;;;;;5054077;28;20037;-82
2021/04/25 05:34:27;;;;;;;0.47;0.47;;;10.10;55.60;;;;;;5054280;28;20048;-83
2021/04/25 05:36:53;;;;;;;0.77;0.63;;;10.20;55.60;;;;;;5054783;28;20044;-84
2021/04/25 05:39:18;;;;;;;0.45;0.40;;;10.20;55.60;;;;;;5054768;28;20544;-83
2021/04/25 05:41:44;;;;;;;0.40;0.40;;;10.20;55.50;;;;;;5055457;28;20033;-80
2021/04/25 05:44:10;;;;;;;0.50;0.50;;;10.30;55.40;;;;;;5054781;28;20547;-84
2021/04/25 05:46:37;;;;;;;0.50;0.50;;;10.30;55.40;;;;;;5053563;28;20045;-83
2021/04/25 05:49:04;;;;;;;0.40;0.40;;;10.30;55.20;;;;;;5054833;28;20040;-84
2021/04/25 05:51:30;;;;;;;1.67;0.40;;;10.20;55.20;;;;;;5054948;28;20053;-84
2021/04/25 05:53:56;;;;;;;0.40;0.40;;;10.20;55.10;;;;;;5056411;28;20511;-87
2021/04/25 05:56:22;;;;;;;0.47;0.43;;;10.20;55.10;;;;;;5054459;28;20029;-82
2021/04/25 05:58:49;;;;;;;0.45;0.40;;;10.20;55.10;;;;;;5055486;28;20044;-82
2021/04/25 06:01:16;;;;;;;0.32;0.32;;;10.20;55.10;;;;;;5053177;28;20067;-77
2021/04/25 06:03:42;;;;;;;0.40;0.40;;;10.20;55.10;;;;;;5053732;28;20053;-80
2021/04/25 06:06:08;;;;;;;1.08;0.40;;;10.20;55.40;;;;;;5035612;28;20123;-80
2021/04/25 06:08:34;;;;;;;0.45;0.40;;;10.30;55.90;;;;;;5053172;28;20135;-81
2021/04/25 06:11:00;;;;;;;0.88;0.50;;;10.30;56.10;;;;;;5053452;28;20477;-81
2021/04/25 06:13:26;;;;;;;0.52;0.40;;;10.40;56.40;;;;;;5053327;28;20124;-83
2021/04/25 06:15:52;;;;;;;2.28;0.30;;;10.50;57.00;;;;;;5053986;28;20123;-81
2021/04/25 06:18:18;;;;;;;2.22;0.38;;;10.50;61.60;;;;;;5052094;28;20075;-83
2021/04/25 06:20:44;;;;;;;1.35;0.40;;;10.70;60.00;;;;;;5051944;28;20025;-80
2021/04/25 06:23:13;;;;;;;0.52;0.32;;;10.70;58.80;;;;;;5051977;28;20037;-79
2021/04/25 06:25:40;;;;;;;0.60;0.40;;;10.70;58.10;;;;;;5053096;28;20064;-79
2021/04/25 06:28:06;;;;;;;4.20;1.33;;;10.70;57.70;;;;;;5051694;28;20139;-82
2021/04/25 06:30:36;;;;;;;1.00;0.65;;;10.70;57.70;;;;;;5053181;28;20044;-83
2021/04/25 06:33:02;;;;;;;3.65;1.98;;;10.70;57.60;;;;;;5052878;28;20033;-83
2021/04/25 06:35:28;;;;;;;2.58;1.40;;;10.70;57.30;;;;;;5051646;28;20094;-82
2021/04/25 06:37:56;;;;;;;1.58;1.05;;;10.80;57.20;;;;;;5035875;28;20040;-83
2021/04/25 06:40:21;;;;;;;1.33;1.00;;;10.80;57.10;;;;;;5034971;28;20087;-82
2021/04/25 06:42:47;;;;;;;3.53;0.60;;;10.90;56.70;;;;;;5052977;28;20083;-80
2021/04/25 06:45:16;;;;;;;0.90;0.50;;;10.90;56.50;;;;;;5051440;28;20470;-80
2021/04/25 06:47:43;;;;;;;1.05;0.80;;;10.90;56.40;;;;;;5052429;28;20045;-81
2021/04/25 06:50:11;;;;;;;1.42;0.50;;;11.00;56.30;;;;;;5052575;28;20068;-81
2021/04/25 06:52:39;;;;;;;0.50;0.40;;;11.00;56.00;;;;;;5052707;28;20028;-87
2021/04/25 06:55:06;;;;;;;0.60;0.40;;;11.10;55.80;;;;;;5052528;28;20083;-85
2021/04/25 06:57:35;;;;;;;2.28;0.50;;;11.20;55.60;;;;;;5052771;28;20119;-85
2021/04/25 07:00:03;;;;;;;4.72;0.80;;;11.20;56.00;;;;;;5036488;28;20160;-86
2021/04/25 07:02:29;;;;;;;2.08;0.50;;;11.30;58.60;;;;;;5031208;28;20029;-85
2021/04/25 07:04:55;;;;;;;2.28;0.47;;;11.40;58.60;;;;;;4989587;28;1905195;-91
2021/04/25 07:07:21;;;;;;;3.15;0.50;;;11.50;58.00;;;;;;5052678;28;20055;-83
2021/04/25 07:09:47;;;;;;;1.85;0.30;;;11.60;57.40;;;;;;5051141;28;20090;-85
2021/04/25 07:12:13;;;;;;;2.35;0.32;;;11.60;56.80;;;;;;5056073;28;20044;-85
2021/04/25 07:14:38;;;;;;;0.50;0.40;;;11.60;56.50;;;;;;5048685;28;20492;-86
2021/04/25 07:17:04;;;;;;;0.90;0.73;;;11.60;55.90;;;;;;5033989;28;20067;-87
2021/04/25 07:19:32;;;;;;;0.40;0.40;;;11.70;55.40;;;;;;5033176;28;20072;-87
2021/04/25 07:21:59;;;;;;;0.82;0.60;;;11.60;54.50;;;;;;5032961;28;20049;-87
2021/04/25 07:24:25;;;;;;;1.10;0.70;;;11.70;54.20;;;;;;5015925;28;20033;-86
2021/04/25 07:26:51;;;;;;;1.08;0.45;;;11.70;54.00;;;;;;5033206;28;20406;-87
2021/04/25 07:29:19;;;;;;;0.30;0.30;;;11.60;53.50;;;;;;5032759;28;20049;-85
2021/04/25 07:31:45;;;;;;;0.60;0.43;;;11.70;53.30;;;;;;5032230;28;20037;-87
2021/04/25 07:34:11;;;;;;;0.30;0.30;;;11.60;52.80;;;;;;5033196;28;20033;-86
2021/04/25 07:36:37;;;;;;;0.30;0.30;;;11.60;52.70;;;;;;5033457;28;20125;-87
2021/04/25 07:39:05;;;;;;;0.55;0.43;;;11.60;52.40;;;;;;5032832;28;20120;-87
2021/04/25 07:41:32;;;;;;;0.75;0.30;;;11.60;52.40;;;;;;5033144;28;20060;-86
2021/04/25 07:43:58;;;;;;;0.85;0.50;;;11.70;52.00;;;;;;5032325;28;20394;-88
2021/04/25 07:46:25;;;;;;;0.52;0.30;;;11.70;51.80;;;;;;5032398;28;20045;-87
2021/04/25 07:48:53;;;;;;;0.40;0.30;;;11.70;51.70;;;;;;5031242;28;20045;-85
2021/04/25 07:51:20;;;;;;;1.55;0.50;;;11.80;52.10;;;;;;5033128;28;20038;-85
2021/04/25 07:53:50;;;;;;;2.22;0.40;;;11.80;51.30;;;;;;5033499;28;20045;-89
2021/04/25 07:56:18;;;;;;;0.70;0.30;;;11.90;51.10;;;;;;5032641;28;20061;-87
2021/04/25 07:58:45;;;;;;;2.05;0.50;;;11.90;50.70;;;;;;5033994;28;20191;-87
2021/04/25 08:01:14;;;;;;;1.08;0.30;;;11.90;50.50;;;;;;5032538;28;20076;-86
2021/04/25 08:03:43;;;;;;;2.00;0.30;;;11.90;50.40;;;;;;5034786;28;20064;-88
2021/04/25 08:06:09;;;;;;;0.20;0.20;;;11.80;50.10;;;;;;5034043;28;20042;-86
2021/04/25 08:08:37;;;;;;;1.15;0.30;;;11.80;50.00;;;;;;5039871;28;20045;-86
2021/04/25 08:11:06;;;;;;;0.20;0.20;;;11.80;49.90;;;;;;5037407;28;20032;-91
2021/04/25 08:13:32;;;;;;;0.20;0.20;;;11.80;49.90;;;;;;5041265;28;20044;-90
2021/04/25 08:15:58;;;;;;;0.30;0.30;;;11.70;49.80;;;;;;5042118;28;20033;-88
2021/04/25 08:18:25;;;;;;;1.05;0.30;;;11.70;49.90;;;;;;5047736;28;20048;-90
2021/04/25 08:20:53;;;;;;;1.33;0.30;;;11.80;50.00;;;;;;5057036;28;20120;-86
2021/04/25 08:23:20;;;;;;;0.38;0.28;;;11.70;49.80;;;;;;5054929;28;20037;-88
2021/04/25 08:25:47;;;;;;;0.93;0.28;;;11.60;50.00;;;;;;5054186;28;20041;-90
2021/04/25 08:28:18;;;;;;;0.30;0.30;;;11.60;50.00;;;;;;5042601;28;20053;-91
2021/04/25 08:30:44;;;;;;;0.40;0.40;;;11.60;50.20;;;;;;5057070;28;20052;-91
2021/04/25 08:33:13;;;;;;;0.40;0.30;;;11.70;50.30;;;;;;5040860;28;20052;-89
2021/04/25 08:35:44;;;;;;;0.30;0.30;;;11.80;50.40;;;;;;5039603;28;20052;-91
2021/04/25 08:38:10;;;;;;;2.83;0.40;;;11.80;50.40;;;;;;5057942;28;20076;-91
2021/04/25 08:40:38;;;;;;;0.80;0.40;;;11.90;50.40;;;;;;5056232;28;20068;-92
2021/04/25 08:43:04;;;;;;;1.50;0.30;;;11.90;50.30;;;;;;5050264;28;20044;-84
2021/04/25 08:45:46;;;;;;;0.98;0.30;;;12.00;50.40;;;;;;5041307;28;20038;-85
2021/04/25 08:48:14;;;;;;;2.22;0.50;;;12.00;50.30;;;;;;5048094;28;20049;-89
2021/04/25 08:51:04;;;;;;;1.00;0.40;;;12.10;50.30;;;;;;5062879;28;20049;-87
2021/04/25 08:53:31;;;;;;;0.40;0.30;;;12.20;50.00;;;;;;5062225;28;20622;-88
2021/04/25 08:56:01;;;;;;;0.75;0.20;;;12.20;49.80;;;;;;5068611;28;20045;-94
2021/04/25 08:58:27;;;;;;;0.20;0.20;;;12.20;49.80;;;;;;5013975;28;20041;-88
2021/04/25 09:00:53;;;;;;;0.30;0.30;;;12.20;49.70;;;;;;5062777;28;20044;-89
2021/04/25 09:03:20;;;;;;;1.17;0.30;;;12.30;49.70;;;;;;5049052;28;20028;-93
2021/04/25 09:05:47;;;;;;;0.30;0.30;;;12.30;49.80;;;;;;5050682;28;20100;-89
2021/04/25 09:08:14;;;;;;;0.63;0.30;;;12.30;49.80;;;;;;5066014;28;20049;-87
2021/04/25 09:10:45;;;;;;;0.38;0.38;;;12.40;49.80;;;;;;5040313;28;20041;-85
2021/04/25 09:13:24;;;;;;;1.13;0.50;;;12.40;49.40;;;;;;5005458;28;20067;-85
2021/04/25 09:15:55;;;;;;;0.65;0.60;;;12.40;49.40;;;;;;5020653;28;20119;-85
2021/04/25 09:18:31;;;;;;;0.40;0.40;;;12.50;49.20;;;;;;5052774;28;20037;-84
2021/04/25 09:21:10;;;;;;;0.95;0.60;;;12.50;48.90;;;;;;5020262;28;20040;-89
2021/04/25 09:23:40;;;;;;;0.88;0.40;;;12.50;48.90;;;;;;5034372;28;20048;-88
2021/04/25 09:26:10;;;;;;;0.35;0.35;;;12.60;48.80;;;;;;5034759;28;20034;-88
2021/04/25 09:28:41;;;;;;;1.75;0.40;;;12.60;48.50;;;;;;5036925;28;20038;-86
2021/04/25 09:31:14;;;;;;;1.80;0.32;;;12.60;48.60;;;;;;5036159;28;20072;-86
2021/04/25 09:33:53;;;;;;;0.77;0.50;;;12.70;48.60;;;;;;5034247;28;20033;-86
2021/04/25 09:36:22;;;;;;;0.77;0.60;;;12.70;48.40;;;;;;5034151;28;20045;-87
2021/04/25 09:38:49;;;;;;;1.48;0.35;;;12.80;48.20;;;;;;5034622;28;20497;-90
2021/04/25 09:41:33;;;;;;;0.55;0.55;;;12.80;48.20;;;;;;5034955;28;20123;-88
2021/04/25 09:44:00;;;;;;;3.78;0.50;;;12.80;48.00;;;;;;5035973;28;20039;-87
2021/04/25 09:46:53;;;;;;;0.52;0.52;;;12.80;48.20;;;;;;5018236;28;20037;-87
2021/04/25 09:49:54;;;;;;;0.40;0.30;;;12.80;48.20;;;;;;5037791;28;20099;-87
2021/04/25 09:52:26;;;;;;;0.30;0.30;;;12.80;47.90;;;;;;4996913;28;20038;-88
2021/04/25 09:55:32;;;;;;;0.50;0.50;;;12.90;47.90;;;;;;5026372;28;20040;-86
2021/04/25 09:58:09;;;;;;;0.95;0.40;;;12.90;47.70;;;;;;4986635;28;20132;-88
2021/04/25 10:00:40;;;;;;;0.60;0.43;;;13.00;47.60;;;;;;5031889;28;20381;-86
2021/04/25 10:03:09;;;;;;;0.90;0.50;;;13.00;47.50;;;;;;5036708;28;20063;-85
2021/04/25 10:05:37;;;;;;;0.70;0.60;;;13.10;47.60;;;;;;5033445;28;20060;-82
2021/04/25 10:08:03;;;;;;;0.55;0.50;;;13.10;47.30;;;;;;5022922;28;20173;-93
2021/04/25 10:10:31;;;;;;;0.93;0.50;;;13.20;47.10;;;;;;5050228;28;20090;-96
2021/04/25 10:12:57;;;;;;;0.63;0.40;;;13.20;46.90;;;;;;5049646;28;20513;-93
2021/04/25 10:15:23;;;;;;;0.90;0.40;;;13.30;46.90;;;;;;5174645;22;20244;-95
2021/04/25 10:17:56;;;;;;;1.10;0.50;;;13.30;46.70;;;;;;5071151;28;20032;-94
2021/04/25 10:20:24;;;;;;;0.43;0.40;;;13.30;46.60;;;;;;5072459;28;20068;-96
2021/04/25 10:25:44;;;;;;;0.90;0.40;;;13.50;47.10;;;;;;5383311;22;20292;-94
2021/04/25 10:28:37;;;;;;;0.60;0.50;;;13.50;46.10;;;;;;5044441;28;20040;-94
2021/04/25 10:31:13;;;;;;;0.45;0.40;;;13.60;45.90;;;;;;5067654;28;20048;-93
2021/04/25 10:34:01;;;;;;;1.23;0.60;;;13.60;45.80;;;;;;5062048;28;20080;-95
2021/04/25 10:36:45;;;;;;;0.68;0.50;;;13.60;45.50;;;;;;5059450;28;20485;-92
2021/04/25 10:39:39;;;;;;;0.80;0.40;;;13.60;45.50;;;;;;5060940;28;20374;-95
2021/04/25 10:42:24;;;;;;;1.25;0.40;;;13.70;45.40;;;;;;5047092;28;20131;-95
2021/04/25 10:45:00;;;;;;;0.57;0.50;;;13.70;45.50;;;;;;5053983;28;20037;-85
2021/04/25 10:47:40;;;;;;;0.50;0.30;;;13.70;45.40;;;;;;5053916;28;20033;-88
2021/04/25 10:50:15;;;;;;;0.40;0.40;;;13.70;45.20;;;;;;5052910;28;20045;-85
2021/04/25 10:52:50;;;;;;;0.85;0.63;;;13.70;45.00;;;;;;5053622;28;20061;-88
2021/04/25 10:55:28;;;;;;;1.65;0.63;;;13.70;45.10;;;;;;5020904;28;20139;-84
2021/04/25 10:57:54;;;;;;;2.15;0.52;;;13.70;45.00;;;;;;5054079;28;20060;-87
2021/04/25 11:00:33;;;;;;;0.63;0.63;;;13.70;45.00;;;;;;5053788;28;20041;-87
2021/04/25 11:03:12;;;;;;;0.70;0.70;;;13.80;44.90;;;;;;5052250;28;20453;-85
2021/04/25 11:05:43;;;;;;;0.65;0.65;;;13.70;45.00;;;;;;5054198;28;20518;-85
2021/04/25 11:08:13;;;;;;;0.73;0.50;;;13.80;45.20;;;;;;5054358;28;20396;-86
2021/04/25 11:11:05;;;;;;;3.13;0.60;;;13.80;45.10;;;;;;5053899;28;20049;-90
2021/04/25 11:13:45;;;;;;;1.52;0.70;;;13.80;44.80;;;;;;5037207;28;20047;-88
2021/04/25 11:16:18;;;;;;;0.60;0.60;;;13.80;44.80;;;;;;5057359;28;20079;-90
2021/04/25 11:19:07;;;;;;;0.75;0.60;;;13.80;44.70;;;;;;5063744;28;20106;-93
2021/04/25 11:24:05;;;;;;;0.95;0.52;;;13.80;44.70;;;;;;5053884;28;20033;-89
2021/04/25 11:26:40;;;;;;;1.73;0.52;;;13.80;44.70;;;;;;5053598;28;20064;-86
2021/04/25 11:29:19;;;;;;;2.45;0.60;;;13.80;44.80;;;;;;5053340;28;20037;-85
2021/04/25 11:31:56;;;;;;;0.50;0.50;;;13.80;44.80;;;;;;5053175;28;20123;-83
2021/04/25 11:34:36;;;;;;;0.50;0.40;;;13.80;44.70;;;;;;5050710;28;20040;-84
2021/04/25 11:37:26;;;;;;;0.95;0.60;;;13.80;44.70;;;;;;5054540;28;20127;-93
2021/04/25 11:39:55;;;;;;;1.30;0.50;;;13.80;44.50;;;;;;5063250;28;20037;-92
2021/04/25 11:42:31;;;;;;;0.63;0.52;;;13.80;44.60;;;;;;5059372;28;20090;-92
2021/04/25 11:45:03;;;;;;;;;;;13.90;44.50;;;;;;5052779;28;20115;-84
2021/04/25 11:47:30;;;;;;;0.55;0.52;;;13.90;44.50;;;;;;5053725;28;20340;-88
2021/04/25 11:49:58;;;;;;;0.60;0.60;;;14.00;44.50;;;;;;5034760;28;20036;-81
2021/04/25 11:52:32;;;;;;;1.85;0.43;;;14.00;44.50;;;;;;5052868;28;20041;-85
2021/04/25 11:54:58;;;;;;;0.82;0.47;;;14.00;44.20;;;;;;5052611;28;20040;-84
2021/04/25 11:57:25;;;;;;;1.40;0.45;;;14.00;44.20;;;;;;5051566;28;20500;-83
2021/04/25 11:59:51;;;;;;;1.92;1.13;;;14.00;44.10;;;;;;5051262;28;20504;-81
2021/04/25 12:02:17;;;;;;;2.55;0.90;;;14.00;44.10;;;;;;5052476;28;20075;-83
2021/04/25 12:04:48;;;;;;;1.20;0.90;;;14.00;44.10;;;;;;5050970;28;20136;-80
2021/04/25 12:07:32;;;;;;;3.33;1.10;;;14.00;43.80;;;;;;5053001;28;20040;-85
2021/04/25 12:10:00;;;;;;;2.03;0.88;;;14.10;48.10;;;;;;5052475;28;20575;-82
2021/04/25 12:12:28;;;;;;;3.47;0.90;;;14.20;47.80;;;;;;5052335;28;20036;-85
2021/04/25 12:15:05;;;;;;;1.38;0.77;;;14.20;47.20;;;;;;5051677;28;20043;-83
2021/04/25 12:17:31;;;;;;;4.20;0.80;;;14.30;47.00;;;;;;5052639;28;20072;-84
2021/04/25 12:20:01;;;;;;;4.53;1.00;;;14.30;46.80;;;;;;5051285;28;20109;-82
2021/04/25 12:22:28;;;;;;;1.80;0.57;;;14.30;46.80;;;;;;5034680;28;20040;-83
2021/04/25 12:24:58;;;;;;;5.00;0.90;;;14.30;46.90;;;;;;5051750;28;20033;-83
2021/04/25 12:27:26;;;;;;;4.05;0.60;;;14.40;47.30;;;;;;5051048;28;20033;-82
2021/04/25 12:29:52;;;;;;;0.82;0.57;;;14.40;47.40;;;;;;5051953;28;20067;-83
2021/04/25 12:32:19;;;;;;;1.52;0.60;;;14.50;47.20;;;;;;5052182;28;20033;-82
2021/04/25 12:35:22;;;;;;;3.40;0.80;;;14.50;46.50;;;;;;5050718;28;20136;-83
2021/04/25 12:37:48;;;;;;;2.20;1.00;;;14.60;46.20;;;;;;5043828;28;20041;-81
2021/04/25 12:40:32;;;;;;;2.33;0.90;;;14.60;46.20;;;;;;5050967;28;20035;-84
2021/04/25 12:43:47;;;;;;;2.20;0.88;;;14.60;46.10;;;;;;5050739;28;20147;-82
2021/04/25 12:46:27;;;;;;;2.22;0.90;;;14.70;45.70;;;;;;5039527;28;20083;-83
2021/04/25 12:48:58;;;;;;;1.80;0.70;;;14.70;45.80;;;;;;5050936;28;20037;-83
2021/04/25 12:51:25;;;;;;;0.75;0.75;;;14.70;45.70;;;;;;5050836;28;20063;-83
2021/04/25 12:53:52;;;;;;;2.45;1.23;;;14.70;45.80;;;;;;5054903;28;20033;-83
2021/04/25 12:56:37;;;;;;;1.25;1.15;;;14.70;45.50;;;;;;5055646;28;20568;-83
2021/04/25 12:59:18;;;;;;;1.45;1.25;;;14.70;45.30;;;;;;5054753;28;20029;-82
2021/04/25 13:01:58;;;;;;;2.88;1.00;;;14.70;45.00;;;;;;5056830;28;20032;-82
2021/04/25 13:04:25;;;;;;;1.17;1.00;;;14.80;45.20;;;;;;5057085;28;20045;-83
2021/04/25 13:07:11;;;;;;;2.30;1.27;;;14.80;44.60;;;;;;5056957;28;20037;-83